Shoukeimaruno.3 — JI3587 — position and weather

sailwx.info

Track history (hours):
 
Tides and Currents Weather Stations Pressure Air Temp Water Temp Dewpoint Dewpoint Depression Visibility Wind Speed Wind Dir Waves Ship Positions

Shoukeimaruno.3

Last reported at 2014-Sep-18 09:08 UTC. Time now 2014-Sep-20 16:04 UTC.
Position N 34°52' E 139°57'.

Length 77 m; draft 3.8 m.

Type: Cargo ship. MMSI: 431300325.

Date/timePositionNaut miles runAvg speedWind from/ knotsBaromVisibWave heightAir tempDewpointWater temp
2014-Sep-18 09:08N 34°52' E 139°57'610.8
2014-Sep-18 08:33N 34°55' E 140°03'3511.3
2014-Sep-18 05:27N 35°21' E 140°33'1213.1
2014-Sep-18 04:32N 35°31' E 140°41'2510.6
2014-Sep-18 02:12N 35°56' E 140°45'4 6.0
2014-Sep-18 01:33N 35°55' E 140°40'0 0.1
2014-Sep-18 00:33N 35°55' E 140°40'0 0.0
2014-Sep-17 22:33N 35°55' E 140°40'2 2.3
2014-Sep-17 21:31N 35°57' E 140°42'0 0.0
2014-Sep-17 20:33N 35°57' E 140°42'0 0.0
2014-Sep-17 19:33N 35°57' E 140°42'0 0.0
2014-Sep-17 18:33N 35°57' E 140°42'0 0.0
2014-Sep-17 17:33N 35°57' E 140°42'0 0.0
2014-Sep-17 16:30N 35°57' E 140°42'5 5.0
2014-Sep-17 15:33N 36°01' E 140°44'  
Track history (hours):
 
Tides and Currents Weather Stations Pressure Air Temp Water Temp Dewpoint Dewpoint Depression Visibility Wind Speed Wind Dir Waves Ship Positions

Shoukeimaruno.3

Last reported at 2014-Sep-18 09:08 UTC. Time now 2014-Sep-20 16:04 UTC.
Position N 34°52' E 139°57'.

Length 77 m; draft 3.8 m.

Type: Cargo ship. MMSI: 431300325.

Date/timePositionNaut miles runAvg speedWind from/ knotsBaromVisibWave heightAir tempDewpointWater temp
2014-Sep-18 09:08N 34°52' E 139°57'610.8
2014-Sep-18 08:33N 34°55' E 140°03'3511.3
2014-Sep-18 05:27N 35°21' E 140°33'1213.1
2014-Sep-18 04:32N 35°31' E 140°41'2510.6
2014-Sep-18 02:12N 35°56' E 140°45'4 6.0
2014-Sep-18 01:33N 35°55' E 140°40'0 0.1
2014-Sep-18 00:33N 35°55' E 140°40'0 0.0
2014-Sep-17 22:33N 35°55' E 140°40'2 2.3
2014-Sep-17 21:31N 35°57' E 140°42'0 0.0
2014-Sep-17 20:33N 35°57' E 140°42'0 0.0
2014-Sep-17 19:33N 35°57' E 140°42'0 0.0
2014-Sep-17 18:33N 35°57' E 140°42'0 0.0
2014-Sep-17 17:33N 35°57' E 140°42'0 0.0
2014-Sep-17 16:30N 35°57' E 140°42'5 5.0
2014-Sep-17 15:33N 36°01' E 140°44'  

Dump ship's entire track history